Time;durP1;ratioP1;P1;durP2;ratioP2;P2;SDS_P1;SDS_P2;PMS_P1;PMS_P2;Temp;Humidity;BMP_temperature;BMP_pressure;BME280_temperature;BME280_humidity;BME280_pressure;Samples;Min_cycle;Max_cycle;Signal;HPM_P1;HPM_P2
2022/01/16 00:00:40;;;;;;;75.43;29.80;;;2.30;99.90;;;;;;5032263;28;20056;-59
2022/01/16 00:05:52;;;;;;;70.53;28.85;;;2.20;99.90;;;;;;5017901;28;20604;-60
2022/01/16 00:08:18;;;;;;;67.82;27.98;;;2.20;99.90;;;;;;5032491;28;20120;-60
2022/01/16 00:10:43;;;;;;;64.90;26.92;;;2.20;99.90;;;;;;5032992;28;20033;-61
2022/01/16 00:13:09;;;;;;;62.88;26.08;;;2.20;99.90;;;;;;5027673;28;20053;-60
2022/01/16 00:15:35;;;;;;;58.85;25.55;;;2.20;99.90;;;;;;5029441;28;20041;-60
2022/01/16 00:20:31;;;;;;;64.55;26.90;;;2.10;99.90;;;;;;5028088;28;20053;-60
2022/01/16 00:22:58;;;;;;;65.90;27.23;;;2.10;99.90;;;;;;5026909;28;20048;-61
2022/01/16 00:25:24;;;;;;;63.65;26.20;;;2.10;99.90;;;;;;5030808;28;20052;-60
2022/01/16 00:27:50;;;;;;;59.50;26.60;;;2.10;99.90;;;;;;5027057;28;20063;-60
2022/01/16 00:30:17;;;;;;;64.20;27.45;;;2.10;99.90;;;;;;5029896;28;20871;-60
2022/01/16 00:32:44;;;;;;;61.42;27.52;;;2.00;99.90;;;;;;5027561;28;20056;-61
2022/01/16 00:35:13;;;;;;;64.57;26.63;;;2.00;99.90;;;;;;5037232;28;20659;-60
2022/01/16 00:37:40;;;;;;;65.97;27.02;;;2.00;99.90;;;;;;5026653;28;20057;-61
2022/01/16 00:40:08;;;;;;;65.93;28.30;;;2.00;99.90;;;;;;5029543;28;20499;-60
2022/01/16 00:42:35;;;;;;;68.55;29.05;;;2.00;99.90;;;;;;5027006;28;20045;-60
2022/01/16 00:45:00;;;;;;;67.25;27.75;;;2.00;99.90;;;;;;5028744;28;20045;-60
2022/01/16 00:47:26;;;;;;;66.85;29.35;;;2.00;99.90;;;;;;5038381;28;20049;-60
2022/01/16 00:49:52;;;;;;;69.85;28.60;;;2.00;99.90;;;;;;5033131;28;20076;-60
2022/01/16 00:52:19;;;;;;;71.75;28.80;;;2.00;99.90;;;;;;5048584;28;20453;-60
2022/01/16 00:54:45;;;;;;;71.03;28.75;;;2.00;99.90;;;;;;5032813;28;20453;-60
2022/01/16 00:57:11;;;;;;;70.05;28.77;;;2.00;99.90;;;;;;5052411;28;20040;-61
2022/01/16 00:59:37;;;;;;;66.63;28.25;;;2.00;99.90;;;;;;5021485;28;20049;-60
2022/01/16 01:02:03;;;;;;;80.00;29.95;;;1.90;99.90;;;;;;5039054;28;20440;-60
2022/01/16 01:04:29;;;;;;;71.07;29.27;;;1.90;99.90;;;;;;5035588;28;20045;-60
2022/01/16 01:06:55;;;;;;;75.75;30.13;;;1.90;99.90;;;;;;5021531;28;20082;-61
2022/01/16 01:09:21;;;;;;;75.13;30.77;;;1.90;99.90;;;;;;5050984;28;20072;-60
2022/01/16 01:11:49;;;;;;;83.18;32.85;;;1.90;99.90;;;;;;5023130;28;20132;-60
2022/01/16 01:14:38;;;;;;;81.05;33.60;;;1.90;99.90;;;;;;5035079;28;20045;-60
2022/01/16 01:17:07;;;;;;;79.57;35.15;;;1.90;99.90;;;;;;5034845;28;20070;-60
2022/01/16 01:19:34;;;;;;;84.65;33.90;;;1.90;99.90;;;;;;5055131;28;20043;-60
2022/01/16 01:22:04;;;;;;;83.97;35.90;;;1.90;99.90;;;;;;5035081;28;20495;-60
2022/01/16 01:24:32;;;;;;;87.18;35.25;;;1.90;99.90;;;;;;5034246;28;20432;-60
2022/01/16 01:27:19;;;;;;;86.72;34.75;;;1.90;99.90;;;;;;5055288;28;20044;-61
2022/01/16 01:29:52;;;;;;;94.60;37.10;;;1.90;99.90;;;;;;5037402;28;20430;-60
2022/01/16 01:32:18;;;;;;;86.72;35.45;;;1.90;99.90;;;;;;5032682;28;20067;-61
2022/01/16 01:34:44;;;;;;;88.13;36.40;;;1.90;99.90;;;;;;5041503;28;20572;-60
2022/01/16 01:37:10;;;;;;;79.15;35.83;;;1.90;99.90;;;;;;5039989;28;20055;-60
2022/01/16 01:39:36;;;;;;;86.70;36.78;;;1.90;99.90;;;;;;5036784;28;20051;-60
2022/01/16 01:42:09;;;;;;;78.15;33.58;;;1.90;99.90;;;;;;5050482;28;20044;-60
2022/01/16 01:52:50;;;;;;;83.38;37.33;;;1.90;99.90;;;;;;5033184;28;20080;-60
2022/01/16 01:55:17;;;;;;;89.25;36.10;;;1.90;99.90;;;;;;5049773;28;20068;-60
2022/01/16 01:57:42;;;;;;;89.53;36.90;;;2.00;99.90;;;;;;5051705;28;20040;-61
2022/01/16 02:00:09;;;;;;;91.05;37.53;;;1.90;99.90;;;;;;5050406;28;20098;-60
2022/01/16 02:02:49;;;;;;;87.18;35.92;;;1.90;99.90;;;;;;5031881;28;20392;-60
2022/01/16 02:05:15;;;;;;;96.65;37.65;;;1.90;99.90;;;;;;5051407;28;20041;-61
2022/01/16 02:07:41;;;;;;;97.68;38.17;;;1.90;99.90;;;;;;5052316;28;20050;-61
2022/01/16 02:10:07;;;;;;;93.15;37.03;;;1.90;99.90;;;;;;5051322;28;20050;-60
2022/01/16 02:12:34;;;;;;;91.93;38.00;;;1.90;99.90;;;;;;5028125;28;20076;-59
2022/01/16 02:15:33;;;;;;;95.72;38.78;;;2.00;99.90;;;;;;5052095;28;20056;-59
2022/01/16 02:29:13;;;;;;;98.47;38.45;;;1.90;99.90;;;;;;5043857;28;20044;-61
2022/01/16 02:31:37;;;;;;;112.35;38.60;;;1.90;99.90;;;;;;5040030;28;20040;-61
2022/01/16 02:36:50;;;;;;;115.38;40.28;;;1.90;99.90;;;;;;5035815;28;20076;-60
2022/01/16 02:39:16;;;;;;;110.63;38.45;;;1.80;99.90;;;;;;5035165;28;20408;-61
2022/01/16 02:41:44;;;;;;;116.15;39.78;;;1.80;99.90;;;;;;5041192;28;20039;-61
2022/01/16 02:44:20;;;;;;;115.32;39.22;;;1.80;99.90;;;;;;5048011;28;20050;-60
2022/01/16 02:46:46;;;;;;;109.80;38.88;;;1.90;99.90;;;;;;5034176;28;20044;-60
2022/01/16 02:49:43;;;;;;;115.93;40.28;;;1.80;99.90;;;;;;5021440;28;20100;-61
2022/01/16 02:52:12;;;;;;;119.00;39.30;;;1.90;99.90;;;;;;5019416;28;20068;-61
2022/01/16 02:54:42;;;;;;;104.85;37.30;;;1.90;99.90;;;;;;5011422;28;20390;-60
2022/01/16 02:57:11;;;;;;;120.43;40.50;;;1.80;99.90;;;;;;5031157;28;20041;-60
2022/01/16 02:59:37;;;;;;;117.78;38.63;;;1.80;99.90;;;;;;5032561;28;20045;-59
2022/01/16 03:02:05;;;;;;;114.82;39.28;;;1.80;99.90;;;;;;5028640;28;20045;-61
2022/01/16 03:04:31;;;;;;;126.28;40.25;;;1.80;99.90;;;;;;5030714;28;20143;-60
2022/01/16 03:07:02;;;;;;;120.22;38.42;;;1.80;99.90;;;;;;5031161;28;20049;-60
2022/01/16 03:09:39;;;;;;;113.00;37.83;;;1.80;99.90;;;;;;5033008;28;20128;-61
2022/01/16 03:12:08;;;;;;;121.18;39.25;;;1.80;99.90;;;;;;5028530;28;20172;-61
2022/01/16 03:14:35;;;;;;;133.82;40.38;;;1.80;99.90;;;;;;5045337;28;20603;-60
2022/01/16 03:17:01;;;;;;;118.53;39.58;;;1.80;99.90;;;;;;5033401;28;20034;-60
2022/01/16 03:22:11;;;;;;;119.43;39.45;;;1.80;99.90;;;;;;5028544;28;20044;-61
2022/01/16 03:24:39;;;;;;;127.50;39.95;;;1.80;99.90;;;;;;5037849;28;20049;-60
2022/01/16 03:27:14;;;;;;;121.50;39.13;;;1.80;99.90;;;;;;5027687;28;20132;-60
2022/01/16 03:29:42;;;;;;;113.82;38.05;;;1.80;99.90;;;;;;5029636;28;20060;-60
2022/01/16 03:32:10;;;;;;;139.32;40.85;;;1.80;99.90;;;;;;5027888;28;20128;-60
2022/01/16 03:34:36;;;;;;;116.40;38.80;;;1.80;99.90;;;;;;5032880;28;20049;-60
2022/01/16 03:37:03;;;;;;;124.32;39.30;;;1.80;99.90;;;;;;5031477;28;20841;-61
2022/01/16 03:39:28;;;;;;;115.93;38.30;;;1.80;99.90;;;;;;5033761;28;20041;-61
2022/01/16 03:41:56;;;;;;;118.55;38.75;;;1.90;99.90;;;;;;5025350;28;20059;-60
2022/01/16 03:44:22;;;;;;;123.20;38.70;;;1.90;99.90;;;;;;5029765;28;20050;-61
2022/01/16 03:46:49;;;;;;;122.18;39.90;;;1.90;99.90;;;;;;5033244;28;20051;-60
2022/01/16 03:49:20;;;;;;;135.65;41.05;;;1.90;99.90;;;;;;5050672;28;20204;-59
2022/01/16 03:51:50;;;;;;;126.50;39.70;;;1.90;99.90;;;;;;5033214;28;20537;-60
2022/01/16 03:54:21;;;;;;;127.03;39.45;;;1.90;99.90;;;;;;5033841;28;20048;-60
2022/01/16 03:56:47;;;;;;;131.43;39.47;;;1.90;99.90;;;;;;5034975;28;20044;-61
2022/01/16 03:59:13;;;;;;;131.90;42.13;;;2.00;99.90;;;;;;5048691;28;20043;-60
2022/01/16 04:01:39;;;;;;;134.68;41.95;;;2.10;99.90;;;;;;5029748;28;20403;-59
2022/01/16 04:04:05;;;;;;;135.48;41.72;;;2.00;99.90;;;;;;5031735;28;20048;-59
2022/01/16 04:06:32;;;;;;;145.23;42.97;;;2.00;99.90;;;;;;5034116;28;20056;-61
2022/01/16 04:08:59;;;;;;;139.43;41.15;;;2.10;99.90;;;;;;5036595;28;20072;-60
2022/01/16 04:11:28;;;;;;;152.95;42.75;;;2.10;99.90;;;;;;5029803;28;20530;-60
2022/01/16 04:14:03;;;;;;;158.93;44.80;;;2.10;99.90;;;;;;5047315;28;20044;-60
2022/01/16 04:16:30;;;;;;;158.88;45.25;;;2.10;99.90;;;;;;5033980;28;20099;-61
2022/01/16 04:18:56;;;;;;;167.57;46.03;;;2.10;99.90;;;;;;5033047;28;20492;-60
2022/01/16 04:21:24;;;;;;;165.35;44.92;;;2.10;99.90;;;;;;5030761;28;21572;-60
2022/01/16 04:23:51;;;;;;;187.52;47.10;;;2.10;99.90;;;;;;5024166;28;20045;-61
2022/01/16 04:26:17;;;;;;;175.75;46.83;;;2.10;99.90;;;;;;5050606;28;20074;-60
2022/01/16 04:28:46;;;;;;;161.02;45.10;;;2.20;99.90;;;;;;5053709;28;20072;-61
2022/01/16 04:31:13;;;;;;;170.00;45.08;;;2.20;99.90;;;;;;5033721;28;20063;-60
2022/01/16 04:33:39;;;;;;;150.45;43.05;;;2.20;99.90;;;;;;5035470;28;20047;-60
2022/01/16 04:36:06;;;;;;;164.70;45.50;;;2.20;99.90;;;;;;5044207;28;20764;-61
2022/01/16 04:38:33;;;;;;;172.75;46.25;;;2.30;99.90;;;;;;5038371;28;20044;-60
2022/01/16 04:43:47;;;;;;;177.10;46.75;;;2.30;99.90;;;;;;5034515;28;20059;-60
2022/01/16 04:46:17;;;;;;;173.88;44.53;;;2.30;99.90;;;;;;5037152;28;24175;-60
2022/01/16 04:48:43;;;;;;;164.35;45.03;;;2.30;99.90;;;;;;5028572;28;20493;-61
2022/01/16 04:51:10;;;;;;;169.13;46.65;;;2.30;99.90;;;;;;5039670;28;20377;-60
2022/01/16 04:53:36;;;;;;;174.60;46.65;;;2.30;99.90;;;;;;5039141;28;20048;-60
2022/01/16 04:56:03;;;;;;;168.00;45.60;;;2.40;99.90;;;;;;5052751;28;20499;-61
2022/01/16 04:58:29;;;;;;;182.98;46.80;;;2.40;99.90;;;;;;5040480;28;20040;-60
2022/01/16 05:00:55;;;;;;;179.25;45.17;;;2.40;99.90;;;;;;5035847;28;20041;-60
2022/01/16 05:03:22;;;;;;;193.93;47.25;;;2.40;99.90;;;;;;5053416;28;20052;-60
2022/01/16 05:05:48;;;;;;;185.98;46.85;;;2.40;99.90;;;;;;5037901;28;20118;-60
2022/01/16 05:08:14;;;;;;;169.32;46.92;;;2.40;99.90;;;;;;5038172;28;20056;-61
2022/01/16 05:10:40;;;;;;;198.27;48.03;;;2.50;99.90;;;;;;5053264;28;20048;-61
2022/01/16 05:18:45;;;;;;;193.27;48.53;;;2.50;99.90;;;;;;5056023;28;20044;-61
2022/01/16 05:21:11;;;;;;;206.20;50.00;;;2.50;99.90;;;;;;5037013;28;20041;-60
2022/01/16 05:23:38;;;;;;;199.38;49.13;;;2.60;99.90;;;;;;5054039;28;20478;-60
2022/01/16 05:26:05;;;;;;;190.88;49.22;;;2.60;99.90;;;;;;5052623;28;20048;-60
2022/01/16 05:28:31;;;;;;;188.65;47.38;;;2.60;99.90;;;;;;5051856;28;20048;-61
2022/01/16 05:30:57;;;;;;;221.40;49.30;;;2.60;99.90;;;;;;5053693;28;20055;-61
2022/01/16 05:33:23;;;;;;;209.07;50.00;;;2.70;99.90;;;;;;5041664;28;20054;-60
2022/01/16 05:35:49;;;;;;;214.27;52.05;;;2.70;99.90;;;;;;5053933;28;20080;-60
2022/01/16 05:38:15;;;;;;;225.20;51.90;;;2.70;99.90;;;;;;5043776;28;20051;-61
2022/01/16 05:40:41;;;;;;;215.95;53.50;;;2.70;99.90;;;;;;5055002;28;20045;-60
2022/01/16 05:43:07;;;;;;;221.38;51.10;;;2.70;99.90;;;;;;5033772;28;20068;-60
2022/01/16 05:45:33;;;;;;;234.20;51.22;;;2.80;99.90;;;;;;5054045;28;20052;-60
2022/01/16 05:47:59;;;;;;;226.82;51.55;;;2.80;99.90;;;;;;5050377;28;20057;-60
2022/01/16 05:50:25;;;;;;;221.32;50.47;;;2.80;99.90;;;;;;5053203;28;20048;-60
2022/01/16 05:52:51;;;;;;;232.15;50.47;;;2.80;99.90;;;;;;5031109;28;20056;-60
2022/01/16 05:55:18;;;;;;;229.02;52.97;;;2.80;99.90;;;;;;5036115;28;20111;-60
2022/01/16 05:57:44;;;;;;;235.15;52.47;;;2.80;99.90;;;;;;5034653;28;20543;-61
2022/01/16 06:00:13;;;;;;;219.20;51.20;;;2.80;99.90;;;;;;5044203;28;20594;-61
2022/01/16 06:02:40;;;;;;;216.35;51.67;;;2.80;99.90;;;;;;5023562;28;20147;-60
2022/01/16 06:05:06;;;;;;;232.10;50.05;;;2.90;99.90;;;;;;5053183;28;20102;-61
2022/01/16 06:07:32;;;;;;;248.57;52.83;;;2.90;99.90;;;;;;5043351;28;20349;-60
2022/01/16 06:09:58;;;;;;;225.88;51.30;;;2.90;99.90;;;;;;5051882;28;20494;-60
2022/01/16 06:12:25;;;;;;;245.60;53.10;;;2.90;99.90;;;;;;5017228;28;20036;-60
2022/01/16 06:14:51;;;;;;;227.93;52.25;;;2.90;99.90;;;;;;5052716;28;20041;-61
2022/01/16 06:17:17;;;;;;;218.32;52.38;;;2.90;99.90;;;;;;5052176;28;20037;-60
2022/01/16 06:19:43;;;;;;;223.30;51.83;;;3.00;99.90;;;;;;5026507;28;20052;-60
2022/01/16 06:22:08;;;;;;;215.70;52.25;;;2.90;99.90;;;;;;5033874;28;20102;-61
2022/01/16 06:24:34;;;;;;;237.73;54.00;;;3.00;99.90;;;;;;5051406;28;20033;-61
2022/01/16 06:27:00;;;;;;;208.85;50.10;;;3.00;99.90;;;;;;5018146;28;20075;-61
2022/01/16 06:29:26;;;;;;;224.45;53.22;;;3.00;99.90;;;;;;5036275;28;20045;-60
2022/01/16 06:31:52;;;;;;;231.57;54.08;;;3.00;99.90;;;;;;5051217;28;20060;-61
2022/01/16 06:34:18;;;;;;;207.38;53.05;;;3.10;99.90;;;;;;5036169;28;20102;-61
2022/01/16 06:36:44;;;;;;;216.32;52.65;;;3.10;99.90;;;;;;5047765;28;20076;-60
2022/01/16 06:39:12;;;;;;;216.18;54.22;;;3.10;99.90;;;;;;5050433;28;20083;-60
2022/01/16 06:41:39;;;;;;;227.30;53.47;;;3.10;99.90;;;;;;5050012;28;20059;-60
2022/01/16 06:44:06;;;;;;;213.85;53.17;;;3.10;99.90;;;;;;5031375;28;20142;-60
2022/01/16 06:46:31;;;;;;;218.82;53.10;;;3.20;99.90;;;;;;5051746;28;20045;-60
2022/01/16 06:48:57;;;;;;;207.90;53.13;;;3.20;99.90;;;;;;4994950;28;1181272;-61
2022/01/16 06:51:24;;;;;;;202.85;53.72;;;3.20;99.90;;;;;;5029928;28;20074;-61
2022/01/16 06:53:53;;;;;;;217.98;54.38;;;3.20;99.90;;;;;;5027196;28;20063;-61
2022/01/16 06:56:20;;;;;;;200.63;55.05;;;3.30;99.90;;;;;;5028196;28;20045;-61
2022/01/16 06:58:46;;;;;;;205.10;53.33;;;3.30;99.90;;;;;;5031044;28;20048;-61
2022/01/16 07:01:13;;;;;;;199.45;54.97;;;3.30;99.90;;;;;;5028811;28;20133;-60
2022/01/16 07:03:40;;;;;;;193.82;54.72;;;3.40;99.90;;;;;;5026793;28;20053;-61
2022/01/16 07:06:06;;;;;;;205.00;56.30;;;3.40;99.90;;;;;;5031991;28;20049;-61
2022/01/16 07:08:32;;;;;;;203.85;56.03;;;3.40;99.90;;;;;;5047171;28;20068;-60
2022/01/16 07:10:59;;;;;;;215.73;57.40;;;3.40;99.90;;;;;;5030323;28;20045;-60
2022/01/16 07:13:27;;;;;;;207.48;56.35;;;3.50;99.90;;;;;;5028098;28;20044;-61
2022/01/16 07:15:52;;;;;;;204.63;56.65;;;3.50;99.90;;;;;;5032875;28;20128;-61
2022/01/16 07:18:19;;;;;;;198.43;55.25;;;3.50;99.90;;;;;;5029990;28;20041;-61
2022/01/16 07:20:45;;;;;;;182.60;54.20;;;3.50;99.90;;;;;;5027192;28;20048;-61
2022/01/16 07:23:15;;;;;;;186.60;54.65;;;3.50;99.90;;;;;;5026397;28;20048;-61
2022/01/16 07:25:43;;;;;;;200.85;56.20;;;3.60;99.90;;;;;;5020774;28;20045;-61
2022/01/16 07:28:10;;;;;;;200.40;55.80;;;3.60;99.90;;;;;;5030240;28;20049;-60
2022/01/16 07:30:38;;;;;;;201.57;57.10;;;3.60;99.90;;;;;;5034166;28;20049;-61
2022/01/16 07:33:05;;;;;;;192.25;56.10;;;3.60;99.90;;;;;;5015827;28;20084;-61
2022/01/16 07:35:32;;;;;;;177.63;55.45;;;3.60;99.90;;;;;;5029701;28;20531;-61
2022/01/16 07:37:58;;;;;;;185.27;56.03;;;3.70;99.90;;;;;;5032679;28;20106;-61
2022/01/16 07:40:24;;;;;;;170.65;54.00;;;3.70;99.90;;;;;;5030336;28;20414;-60
2022/01/16 07:42:51;;;;;;;176.30;54.60;;;3.70;99.90;;;;;;5027861;28;20132;-60
2022/01/16 07:45:17;;;;;;;174.95;55.17;;;3.80;99.90;;;;;;5027986;28;22043;-61
2022/01/16 07:47:43;;;;;;;166.43;53.60;;;3.80;99.90;;;;;;5028075;28;20064;-61
2022/01/16 07:50:10;;;;;;;162.05;52.35;;;3.80;99.90;;;;;;5026039;28;20057;-60
2022/01/16 07:52:36;;;;;;;165.38;54.13;;;3.90;99.90;;;;;;5030055;28;20052;-61
2022/01/16 07:55:02;;;;;;;154.40;51.65;;;3.90;99.90;;;;;;5031994;28;20113;-60
2022/01/16 07:57:28;;;;;;;156.20;52.75;;;3.90;99.90;;;;;;5029805;28;20120;-60
2022/01/16 07:59:54;;;;;;;156.93;52.72;;;3.90;99.90;;;;;;5028099;28;20482;-61
2022/01/16 08:02:19;;;;;;;145.93;50.90;;;3.90;99.90;;;;;;4998333;28;20091;-61
2022/01/16 08:04:45;;;;;;;141.57;51.58;;;3.90;99.90;;;;;;5023132;28;20041;-60
2022/01/16 08:07:11;;;;;;;140.10;49.95;;;4.00;99.90;;;;;;5028418;28;20045;-61
2022/01/16 08:09:38;;;;;;;146.63;50.38;;;4.00;99.90;;;;;;5029163;28;20102;-61
2022/01/16 08:12:05;;;;;;;149.07;51.45;;;4.00;99.90;;;;;;5029873;28;20484;-61
2022/01/16 08:14:31;;;;;;;133.40;49.95;;;4.00;99.90;;;;;;5024857;28;20041;-61
2022/01/16 08:16:58;;;;;;;134.70;49.08;;;4.00;99.90;;;;;;5027249;28;20056;-60
2022/01/16 08:19:25;;;;;;;138.23;50.08;;;4.10;99.90;;;;;;5027910;28;20463;-61
2022/01/16 08:21:51;;;;;;;125.65;48.10;;;4.10;99.90;;;;;;5026055;28;20144;-61
2022/01/16 08:24:17;;;;;;;125.35;48.10;;;4.10;99.90;;;;;;5039893;28;20116;-61
2022/01/16 08:26:43;;;;;;;119.03;47.35;;;4.20;99.90;;;;;;5027821;28;20103;-61
2022/01/16 08:29:09;;;;;;;116.20;47.33;;;4.20;99.90;;;;;;5030824;28;20047;-60
2022/01/16 08:31:35;;;;;;;122.60;47.25;;;4.20;99.90;;;;;;5028453;28;20041;-61
2022/01/16 08:34:01;;;;;;;110.05;45.80;;;4.20;99.90;;;;;;5029811;28;20068;-61
2022/01/16 08:36:27;;;;;;;101.95;44.42;;;4.30;99.90;;;;;;5027243;28;20052;-60
2022/01/16 08:38:56;;;;;;;108.03;42.67;;;4.30;99.90;;;;;;5031257;28;20045;-61
2022/01/16 08:41:22;;;;;;;97.10;42.53;;;4.40;99.90;;;;;;5029217;28;20554;-61
2022/01/16 08:43:48;;;;;;;86.70;41.08;;;4.40;99.90;;;;;;5027746;28;20602;-61
2022/01/16 08:46:14;;;;;;;95.13;42.97;;;4.40;99.90;;;;;;5031888;28;20128;-60
2022/01/16 08:48:40;;;;;;;95.63;41.80;;;4.40;99.90;;;;;;5029715;28;20099;-60
2022/01/16 08:51:07;;;;;;;80.88;39.35;;;4.50;99.90;;;;;;5027252;28;20131;-61
2022/01/16 08:53:33;;;;;;;84.10;40.65;;;4.50;99.90;;;;;;5026632;28;20127;-60
2022/01/16 08:56:00;;;;;;;86.18;41.33;;;4.60;99.90;;;;;;5029725;28;20057;-61
2022/01/16 08:58:27;;;;;;;87.80;40.67;;;4.60;99.90;;;;;;5029149;28;20078;-60
2022/01/16 09:00:53;;;;;;;86.30;40.50;;;4.60;99.90;;;;;;5025371;28;20053;-61
2022/01/16 09:03:21;;;;;;;88.82;39.72;;;4.60;99.90;;;;;;5024359;28;20118;-61
2022/01/16 09:05:48;;;;;;;92.30;40.15;;;4.60;99.90;;;;;;5027659;28;20045;-61
2022/01/16 09:08:15;;;;;;;83.80;39.60;;;4.70;99.90;;;;;;5031061;28;20080;-61
2022/01/16 09:10:41;;;;;;;76.80;38.33;;;4.70;99.90;;;;;;5032679;28;20043;-60
2022/01/16 09:13:12;;;;;;;85.95;40.47;;;4.80;99.90;;;;;;5027504;28;20055;-61
2022/01/16 09:15:42;;;;;;;79.85;40.03;;;4.80;99.90;;;;;;5027150;28;20634;-61
2022/01/16 09:18:08;;;;;;;82.45;39.35;;;4.80;99.90;;;;;;5031419;28;20126;-61
2022/01/16 09:20:34;;;;;;;77.22;38.97;;;4.80;99.90;;;;;;5029871;28;20055;-60
2022/01/16 09:23:00;;;;;;;77.25;38.60;;;4.90;99.90;;;;;;5013985;28;20037;-61
2022/01/16 09:25:27;;;;;;;69.45;37.00;;;4.90;99.90;;;;;;5016873;28;20053;-61
2022/01/16 09:27:53;;;;;;;76.10;37.17;;;4.90;99.90;;;;;;5031439;28;20630;-61
2022/01/16 09:30:21;;;;;;;72.97;37.55;;;4.90;99.90;;;;;;5031477;28;20046;-61
2022/01/16 09:32:47;;;;;;;71.45;37.72;;;5.00;99.90;;;;;;5028458;28;20059;-60
2022/01/16 09:35:13;;;;;;;79.75;36.78;;;5.00;99.90;;;;;;5035336;28;20476;-61
2022/01/16 09:37:40;;;;;;;74.45;37.45;;;5.00;99.90;;;;;;5033212;28;20045;-60
2022/01/16 09:40:07;;;;;;;78.72;36.72;;;5.10;99.90;;;;;;5033514;28;21101;-60
2022/01/16 09:42:34;;;;;;;71.40;35.60;;;5.10;99.90;;;;;;5030499;28;20052;-61
2022/01/16 09:45:00;;;;;;;65.32;35.70;;;5.10;99.90;;;;;;5031974;28;20048;-60
2022/01/16 09:47:26;;;;;;;70.18;34.85;;;5.20;99.90;;;;;;5036839;28;20086;-61
2022/01/16 09:49:52;;;;;;;69.20;34.40;;;5.10;99.90;;;;;;5022429;28;20399;-61
2022/01/16 09:52:19;;;;;;;73.65;36.72;;;5.20;99.90;;;;;;5052366;28;20060;-61
2022/01/16 09:54:45;;;;;;;70.10;35.25;;;5.20;99.90;;;;;;5054417;28;20051;-61
2022/01/16 09:57:12;;;;;;;70.82;34.35;;;5.20;99.90;;;;;;5036688;28;20089;-60
2022/01/16 09:59:38;;;;;;;74.18;36.30;;;5.30;99.90;;;;;;5033953;28;20041;-60
2022/01/16 10:02:06;;;;;;;70.03;35.22;;;5.30;99.90;;;;;;5050947;28;20361;-61
2022/01/16 10:04:37;;;;;;;63.78;35.35;;;5.30;99.90;;;;;;5023823;28;21208;-61
2022/01/16 10:07:10;;;;;;;73.35;35.33;;;5.40;99.90;;;;;;5035470;28;20040;-61
2022/01/16 10:09:38;;;;;;;66.43;35.15;;;5.40;99.90;;;;;;5054734;28;20060;-60
2022/01/16 10:12:13;;;;;;;71.15;34.50;;;5.40;99.90;;;;;;5035387;28;20045;-62
2022/01/16 10:14:49;;;;;;;74.75;35.25;;;5.40;99.90;;;;;;5050870;28;20056;-61
2022/01/16 10:17:20;;;;;;;60.70;33.35;;;5.50;99.90;;;;;;5035174;28;20048;-61
2022/01/16 10:20:01;;;;;;;69.72;33.92;;;5.50;99.90;;;;;;5052926;28;20036;-61
2022/01/16 10:23:01;;;;;;;74.63;34.88;;;5.60;99.90;;;;;;5037449;28;20036;-61
2022/01/16 10:25:41;;;;;;;75.68;34.63;;;5.60;99.90;;;;;;5035915;28;20143;-60
2022/01/16 10:28:33;;;;;;;71.03;33.75;;;5.60;99.90;;;;;;5034266;28;20464;-61
2022/01/16 10:30:59;;;;;;;68.32;34.78;;;5.60;99.90;;;;;;5047673;28;20582;-60
2022/01/16 10:33:32;;;;;;;68.55;33.42;;;5.70;99.90;;;;;;5031966;28;20078;-61
2022/01/16 10:35:58;;;;;;;69.43;33.35;;;5.80;99.90;;;;;;5034925;28;20049;-61
2022/01/16 10:38:28;;;;;;;73.18;34.17;;;5.80;99.90;;;;;;5034484;28;20415;-61
2022/01/16 10:40:56;;;;;;;64.35;32.85;;;5.80;99.90;;;;;;5049290;28;20052;-61
2022/01/16 10:43:44;;;;;;;67.57;32.72;;;5.90;99.90;;;;;;5046586;28;20121;-60
2022/01/16 10:46:12;;;;;;;72.43;32.03;;;5.90;99.90;;;;;;5053250;28;20134;-61
2022/01/16 10:48:39;;;;;;;69.40;32.88;;;5.90;99.90;;;;;;5029249;28;20092;-61
2022/01/16 10:51:17;;;;;;;57.58;31.35;;;6.00;99.90;;;;;;5018366;28;20053;-60
2022/01/16 10:53:43;;;;;;;61.72;29.80;;;6.00;99.90;;;;;;5034504;28;20668;-61
2022/01/16 10:56:11;;;;;;;63.50;30.40;;;6.10;99.90;;;;;;5037640;28;20057;-60
2022/01/16 10:58:39;;;;;;;61.95;30.27;;;6.10;99.90;;;;;;5030583;28;20115;-60
2022/01/16 11:01:23;;;;;;;62.00;29.52;;;6.10;99.90;;;;;;5029000;28;20044;-61
2022/01/16 11:03:51;;;;;;;64.47;27.80;;;6.10;99.90;;;;;;5029789;28;20053;-61
2022/01/16 11:06:21;;;;;;;64.07;29.60;;;6.10;99.90;;;;;;5036731;28;20388;-61
2022/01/16 11:08:51;;;;;;;61.63;28.48;;;6.10;99.90;;;;;;5031431;28;20060;-61
2022/01/16 11:11:20;;;;;;;60.35;28.38;;;6.10;99.90;;;;;;5037210;28;20562;-60
2022/01/16 11:13:46;;;;;;;59.08;27.33;;;6.10;99.90;;;;;;5030257;28;20501;-61
2022/01/16 11:16:12;;;;;;;63.70;28.33;;;6.20;99.90;;;;;;5033173;28;20045;-61
2022/01/16 11:18:40;;;;;;;54.47;26.13;;;6.20;99.90;;;;;;5038234;28;20120;-61
2022/01/16 11:26:24;;;;;;;49.38;23.98;;;6.30;99.90;;;;;;5018229;28;20672;-62
2022/01/16 11:28:54;;;;;;;52.42;22.55;;;6.30;99.90;;;;;;5047663;28;20184;-61
2022/01/16 11:31:20;;;;;;;46.00;22.35;;;6.30;99.90;;;;;;5028966;28;20061;-61
2022/01/16 11:33:46;;;;;;;42.60;21.40;;;6.30;99.90;;;;;;5032325;28;20051;-62
2022/01/16 11:36:23;;;;;;;43.72;20.05;;;6.30;99.90;;;;;;5033270;28;20045;-62
2022/01/16 11:39:00;;;;;;;39.15;20.65;;;6.30;99.90;;;;;;5019246;28;20056;-62
2022/01/16 11:41:46;;;;;;;46.17;19.40;;;6.40;99.90;;;;;;5026697;28;20134;-61
2022/01/16 11:44:23;;;;;;;35.97;19.73;;;6.40;99.90;;;;;;5031117;28;20045;-61
2022/01/16 11:46:51;;;;;;;43.10;19.23;;;6.40;99.90;;;;;;5031834;28;20105;-62
2022/01/16 11:49:30;;;;;;;39.45;17.45;;;6.40;99.90;;;;;;5013113;28;21045;-61
2022/01/16 11:52:02;;;;;;;39.42;16.95;;;6.40;99.90;;;;;;5030593;28;20506;-61
2022/01/16 11:54:55;;;;;;;37.67;17.52;;;6.40;99.90;;;;;;5029575;28;20045;-62
2022/01/16 11:57:24;;;;;;;34.63;16.63;;;6.40;99.90;;;;;;5037801;28;20404;-61
2022/01/16 11:59:54;;;;;;;37.20;16.17;;;6.50;99.90;;;;;;5039630;28;20451;-61
2022/01/16 12:02:25;;;;;;;42.17;16.10;;;6.50;99.90;;;;;;5030373;28;20428;-61
2022/01/16 12:04:54;;;;;;;33.00;16.42;;;6.50;99.90;;;;;;5020820;28;20802;-61
2022/01/16 12:07:20;;;;;;;32.92;15.60;;;6.50;99.90;;;;;;5029794;28;20052;-62
2022/01/16 12:09:53;;;;;;;33.83;15.30;;;6.50;99.90;;;;;;5027984;28;20056;-61
2022/01/16 12:12:19;;;;;;;34.55;14.57;;;6.60;99.90;;;;;;5045341;28;20095;-61
2022/01/16 12:14:56;;;;;;;31.90;14.43;;;6.60;99.90;;;;;;5038154;28;20037;-62
2022/01/16 12:17:28;;;;;;;30.65;13.13;;;6.60;99.90;;;;;;5026756;28;20124;-62
2022/01/16 12:19:56;;;;;;;32.07;12.90;;;6.50;99.90;;;;;;5029991;28;20123;-61
2022/01/16 12:22:52;;;;;;;27.55;11.88;;;6.60;99.90;;;;;;5042309;28;20377;-61
2022/01/16 12:25:31;;;;;;;28.63;11.63;;;6.60;99.90;;;;;;5027121;28;20558;-62
2022/01/16 12:27:56;;;;;;;29.92;10.80;;;6.60;99.90;;;;;;5032633;28;20114;-61
2022/01/16 12:30:32;;;;;;;21.92;10.20;;;6.60;99.90;;;;;;5025602;28;20120;-61
2022/01/16 12:33:00;;;;;;;22.65;10.88;;;6.60;99.90;;;;;;5028851;28;20053;-61
2022/01/16 12:35:42;;;;;;;24.45;11.98;;;6.60;99.90;;;;;;5028191;28;20152;-61
2022/01/16 12:38:19;;;;;;;25.00;9.75;;;6.60;99.90;;;;;;5025636;28;20033;-61
2022/01/16 12:41:08;;;;;;;27.77;11.02;;;6.60;99.90;;;;;;5044454;28;20115;-61
2022/01/16 12:43:41;;;;;;;29.67;11.20;;;6.60;99.90;;;;;;5025661;28;20832;-61
2022/01/16 12:46:13;;;;;;;22.75;10.00;;;6.60;99.90;;;;;;5030302;28;20104;-61
2022/01/16 12:48:52;;;;;;;25.75;10.40;;;6.70;99.90;;;;;;5043235;28;20105;-61
2022/01/16 12:51:19;;;;;;;22.58;10.07;;;6.60;99.90;;;;;;5044495;28;20534;-60
2022/01/16 12:54:13;;;;;;;28.35;10.95;;;6.60;99.90;;;;;;5053866;28;20540;-60
2022/01/16 12:56:53;;;;;;;18.50;8.85;;;6.60;99.90;;;;;;5045956;28;20067;-61
2022/01/16 12:59:22;;;;;;;19.25;9.45;;;6.60;99.90;;;;;;5039301;28;20049;-60
2022/01/16 13:01:51;;;;;;;21.48;9.60;;;6.60;99.90;;;;;;5052752;28;20067;-60
2022/01/16 13:04:19;;;;;;;24.90;9.40;;;6.60;99.90;;;;;;5017124;28;20535;-61
2022/01/16 13:06:45;;;;;;;22.92;9.75;;;6.60;99.90;;;;;;5053809;28;20048;-60
2022/01/16 13:09:12;;;;;;;25.10;8.77;;;6.60;99.90;;;;;;5038731;28;20036;-61
2022/01/16 13:11:41;;;;;;;24.60;9.82;;;6.60;99.90;;;;;;5018196;28;20041;-61
2022/01/16 13:14:19;;;;;;;22.17;9.50;;;6.60;99.90;;;;;;5052015;28;20040;-60
2022/01/16 13:16:48;;;;;;;18.85;9.25;;;6.60;99.90;;;;;;5019985;28;20044;-61
2022/01/16 13:19:18;;;;;;;23.17;9.38;;;6.60;99.90;;;;;;5038702;28;20108;-61
2022/01/16 13:21:58;;;;;;;19.35;9.98;;;6.60;99.90;;;;;;5047267;28;20549;-61
2022/01/16 13:24:47;;;;;;;22.10;9.68;;;6.60;99.90;;;;;;5015862;28;20106;-61